Time;durP1;ratioP1;P1;durP2;ratioP2;P2;SDS_P1;SDS_P2;PMS_P1;PMS_P2;Temp;Humidity;BMP_temperature;BMP_pressure;BME280_temperature;BME280_humidity;BME280_pressure;Samples;Min_cycle;Max_cycle;Signal;HPM_P1;HPM_P2
2023/07/11 00:02:11;;;;;;;0.60;0.60;;;;;;;;;;10328227;28;20248;-78
2023/07/11 00:07:12;;;;;;;0.68;0.68;;;;;;;;;;10311126;28;20232;-75
2023/07/11 00:12:13;;;;;;;0.68;0.68;;;;;;;;;;10326246;28;20219;-77
2023/07/11 00:17:14;;;;;;;0.50;0.50;;;;;;;;;;10340311;28;20297;-76
2023/07/11 00:22:15;;;;;;;0.50;0.50;;;;;;;;;;10337304;28;20216;-76
2023/07/11 00:27:17;;;;;;;1.30;0.68;;;;;;;;;;10336215;28;20229;-76
2023/07/11 00:32:18;;;;;;;0.60;0.60;;;;;;;;;;10312777;28;20800;-75
2023/07/11 00:37:19;;;;;;;0.52;0.52;;;;;;;;;;10339503;28;20219;-74
2023/07/11 00:42:20;;;;;;;0.60;0.60;;;;;;;;;;10322644;28;20283;-75
2023/07/11 00:47:22;;;;;;;1.95;0.50;;;;;;;;;;10321138;28;20274;-75
2023/07/11 00:52:24;;;;;;;0.50;0.50;;;;;;;;;;10323362;28;20308;-74
2023/07/11 00:57:26;;;;;;;0.75;0.60;;;;;;;;;;10335573;28;20733;-76
2023/07/11 01:02:29;;;;;;;0.43;0.43;;;;;;;;;;10328059;28;20240;-78
2023/07/11 01:07:31;;;;;;;0.57;0.50;;;;;;;;;;10326698;28;20236;-74
2023/07/11 01:12:32;;;;;;;0.82;0.82;;;;;;;;;;10321828;28;20223;-75
2023/07/11 01:17:34;;;;;;;0.50;0.50;;;;;;;;;;10320255;28;20310;-74
2023/07/11 01:22:36;;;;;;;2.40;0.68;;;;;;;;;;10313959;28;20219;-77
2023/07/11 01:27:38;;;;;;;0.43;0.43;;;;;;;;;;10315044;28;20220;-75
2023/07/11 01:32:39;;;;;;;0.73;0.73;;;;;;;;;;10318252;28;20327;-78
2023/07/11 01:37:40;;;;;;;0.60;0.60;;;;;;;;;;10298957;28;20790;-76
2023/07/11 01:42:42;;;;;;;0.50;0.50;;;;;;;;;;10328440;28;20212;-74
2023/07/11 01:47:43;;;;;;;0.55;0.55;;;;;;;;;;10310691;28;20286;-75
2023/07/11 01:52:44;;;;;;;0.80;0.60;;;;;;;;;;10333801;28;20231;-75
2023/07/11 01:57:45;;;;;;;0.95;0.60;;;;;;;;;;10321230;28;20219;-75
2023/07/11 02:02:46;;;;;;;0.70;0.70;;;;;;;;;;10315084;28;20270;-78
2023/07/11 02:07:47;;;;;;;0.88;0.47;;;;;;;;;;10318200;28;20270;-77
2023/07/11 02:12:48;;;;;;;3.05;0.90;;;;;;;;;;10318979;28;20937;-77
2023/07/11 02:17:49;;;;;;;0.98;0.50;;;;;;;;;;10311498;28;20213;-75
2023/07/11 02:22:50;;;;;;;0.75;0.60;;;;;;;;;;10316965;28;20224;-75
2023/07/11 02:27:51;;;;;;;0.95;0.75;;;;;;;;;;10320008;28;20611;-75
2023/07/11 02:32:52;;;;;;;0.55;0.55;;;;;;;;;;10323267;28;20216;-75
2023/07/11 02:37:53;;;;;;;0.60;0.60;;;;;;;;;;10307074;28;20228;-76
2023/07/11 02:42:54;;;;;;;0.85;0.85;;;;;;;;;;10337132;28;20222;-77
2023/07/11 02:47:55;;;;;;;0.82;0.82;;;;;;;;;;10317263;28;21121;-75
2023/07/11 02:52:56;;;;;;;1.00;0.90;;;;;;;;;;10328869;28;20224;-78
2023/07/11 02:57:57;;;;;;;0.70;0.70;;;;;;;;;;10318357;28;20231;-75
2023/07/11 03:02:58;;;;;;;1.17;0.80;;;;;;;;;;10311661;28;20219;-76
2023/07/11 03:07:59;;;;;;;3.20;1.00;;;;;;;;;;10317744;28;20251;-77
2023/07/11 03:13:00;;;;;;;0.70;0.70;;;;;;;;;;10316875;28;20293;-74
2023/07/11 03:18:01;;;;;;;3.00;0.73;;;;;;;;;;10315468;28;21149;-75
2023/07/11 03:23:02;;;;;;;3.65;0.70;;;;;;;;;;10314261;28;20269;-77
2023/07/11 03:28:03;;;;;;;0.70;0.70;;;;;;;;;;10337014;28;20639;-75
2023/07/11 03:33:04;;;;;;;0.70;0.70;;;;;;;;;;10316554;28;20231;-74
2023/07/11 03:38:05;;;;;;;0.80;0.80;;;;;;;;;;10318143;28;20215;-77
2023/07/11 03:43:06;;;;;;;0.40;0.40;;;;;;;;;;10315284;28;20224;-74
2023/07/11 03:48:07;;;;;;;2.45;0.63;;;;;;;;;;10319098;28;20235;-75
2023/07/11 03:53:08;;;;;;;2.58;1.23;;;;;;;;;;10320912;28;20220;-75
2023/07/11 03:58:09;;;;;;;2.22;1.60;;;;;;;;;;10339625;28;20215;-75
2023/07/11 04:03:11;;;;;;;3.40;0.85;;;;;;;;;;10334815;28;20250;-76
2023/07/11 04:08:12;;;;;;;0.70;0.70;;;;;;;;;;10335326;28;20255;-77
2023/07/11 04:13:12;;;;;;;0.70;0.70;;;;;;;;;;10324051;28;20239;-77
2023/07/11 04:18:13;;;;;;;0.60;0.60;;;;;;;;;;10323288;28;20274;-75
2023/07/11 04:23:15;;;;;;;3.30;0.73;;;;;;;;;;10326618;28;20222;-75
2023/07/11 04:28:16;;;;;;;0.75;0.75;;;;;;;;;;10315374;28;20240;-76
2023/07/11 04:33:17;;;;;;;2.22;0.70;;;;;;;;;;10324636;28;20225;-79
2023/07/11 04:38:18;;;;;;;1.05;0.90;;;;;;;;;;10335772;28;20223;-76
2023/07/11 04:43:19;;;;;;;1.05;0.98;;;;;;;;;;10337535;28;20231;-77
2023/07/11 04:48:20;;;;;;;4.88;1.00;;;;;;;;;;10323204;28;20229;-76
2023/07/11 04:53:21;;;;;;;1.00;0.90;;;;;;;;;;10320997;28;20304;-76
2023/07/11 04:58:23;;;;;;;1.20;1.17;;;;;;;;;;10341509;28;20215;-76
2023/07/11 05:03:24;;;;;;;1.30;1.30;;;;;;;;;;10329625;28;20621;-77
2023/07/11 05:08:25;;;;;;;0.88;0.88;;;;;;;;;;10352731;28;20232;-77
2023/07/11 05:13:27;;;;;;;2.08;1.40;;;;;;;;;;10348355;28;20701;-77
2023/07/11 05:18:29;;;;;;;1.58;1.38;;;;;;;;;;10331489;28;20212;-77
2023/07/11 05:23:30;;;;;;;1.23;1.23;;;;;;;;;;10326791;28;20640;-77
2023/07/11 05:28:31;;;;;;;5.22;1.33;;;;;;;;;;10347512;28;20246;-79
2023/07/11 05:33:33;;;;;;;1.20;1.20;;;;;;;;;;10328282;28;20220;-77
2023/07/11 05:38:34;;;;;;;1.00;1.00;;;;;;;;;;10319058;28;20216;-78
2023/07/11 05:43:36;;;;;;;1.13;1.13;;;;;;;;;;10338842;28;20224;-78
2023/07/11 05:48:37;;;;;;;0.95;0.95;;;;;;;;;;10326750;28;20223;-78
2023/07/11 05:53:38;;;;;;;1.65;1.17;;;;;;;;;;10341217;28;20216;-80
2023/07/11 05:58:39;;;;;;;1.30;0.88;;;;;;;;;;10337244;28;20709;-78
2023/07/11 06:03:49;;;;;;;0.80;0.80;;;;;;;;;;10336786;28;20239;-79
2023/07/11 06:08:50;;;;;;;0.70;0.70;;;;;;;;;;10312250;28;20238;-76
2023/07/11 06:13:51;;;;;;;0.60;0.60;;;;;;;;;;10312956;28;20216;-76
2023/07/11 06:18:53;;;;;;;1.55;0.65;;;;;;;;;;10308636;28;20216;-78
2023/07/11 06:23:54;;;;;;;5.97;0.60;;;;;;;;;;10301473;28;20718;-77
2023/07/11 06:28:56;;;;;;;0.40;0.40;;;;;;;;;;10328307;28;20220;-81
2023/07/11 06:33:57;;;;;;;0.65;0.65;;;;;;;;;;10325689;28;20231;-77
2023/07/11 06:38:58;;;;;;;0.68;0.68;;;;;;;;;;10319516;28;20744;-77
2023/07/11 06:43:59;;;;;;;0.57;0.57;;;;;;;;;;10323822;28;20223;-77
2023/07/11 06:49:00;;;;;;;0.60;0.60;;;;;;;;;;10323920;28;20231;-77
2023/07/11 06:54:02;;;;;;;0.52;0.52;;;;;;;;;;10311768;28;20620;-75
2023/07/11 06:59:03;;;;;;;1.40;0.55;;;;;;;;;;10325370;28;23925;-78
2023/07/11 07:04:04;;;;;;;1.50;0.60;;;;;;;;;;10324942;28;20224;-75
2023/07/11 07:09:05;;;;;;;1.95;0.70;;;;;;;;;;10326956;28;20847;-77
2023/07/11 07:14:07;;;;;;;1.45;0.80;;;;;;;;;;10322112;28;20223;-76
2023/07/11 07:19:10;;;;;;;0.57;0.57;;;;;;;;;;10292481;28;20349;-76
2023/07/11 07:24:11;;;;;;;0.70;0.70;;;;;;;;;;10318672;28;20339;-76
2023/07/11 07:29:12;;;;;;;0.75;0.70;;;;;;;;;;10322544;28;20227;-78
2023/07/11 07:34:14;;;;;;;0.82;0.60;;;;;;;;;;10309080;28;20247;-78
2023/07/11 07:39:14;;;;;;;2.38;0.63;;;;;;;;;;10308760;28;20513;-77
2023/07/11 07:44:15;;;;;;;0.68;0.65;;;;;;;;;;10327917;28;20226;-77
2023/07/11 07:49:16;;;;;;;1.35;0.77;;;;;;;;;;10316190;28;20583;-78
2023/07/11 07:54:18;;;;;;;1.25;0.40;;;;;;;;;;10303245;28;20223;-78
2023/07/11 07:59:19;;;;;;;0.50;0.50;;;;;;;;;;10315010;28;20748;-82
2023/07/11 08:04:20;;;;;;;0.50;0.50;;;;;;;;;;10302945;28;20231;-79
2023/07/11 08:09:21;;;;;;;0.55;0.50;;;;;;;;;;10317255;28;20263;-79
2023/07/11 08:14:22;;;;;;;0.63;0.60;;;;;;;;;;10320772;28;20250;-78
2023/07/11 08:19:23;;;;;;;2.75;0.73;;;;;;;;;;10305597;28;20717;-76
2023/07/11 08:24:24;;;;;;;0.70;0.70;;;;;;;;;;10307163;28;20219;-77
2023/07/11 08:29:25;;;;;;;1.00;0.70;;;;;;;;;;10319427;28;20248;-76
2023/07/11 08:34:27;;;;;;;0.80;0.80;;;;;;;;;;10322103;28;20375;-77
2023/07/11 08:39:28;;;;;;;0.70;0.70;;;;;;;;;;10324003;28;20719;-77
2023/07/11 08:44:38;;;;;;;0.80;0.80;;;;;;;;;;10338377;28;20279;-78
2023/07/11 08:49:51;;;;;;;0.52;0.52;;;;;;;;;;10312898;28;20221;-76
2023/07/11 08:54:55;;;;;;;1.42;0.80;;;;;;;;;;10327672;28;20227;-77
2023/07/11 09:00:05;;;;;;;0.70;0.60;;;;;;;;;;10338362;28;20266;-77
2023/07/11 09:05:11;;;;;;;2.35;0.85;;;;;;;;;;10337132;28;20211;-76
2023/07/11 09:10:15;;;;;;;0.60;0.60;;;;;;;;;;10325059;28;20227;-74
2023/07/11 09:15:23;;;;;;;0.50;0.50;;;;;;;;;;10334978;28;20285;-75
2023/07/11 09:20:37;;;;;;;1.23;0.57;;;;;;;;;;10323952;28;20228;-77
2023/07/11 09:25:43;;;;;;;0.50;0.50;;;;;;;;;;10326684;28;20225;-75
2023/07/11 09:30:52;;;;;;;0.77;0.60;;;;;;;;;;10322206;28;20695;-75
2023/07/11 09:35:53;;;;;;;1.00;0.65;;;;;;;;;;10348801;28;20295;-75
2023/07/11 09:41:01;;;;;;;0.65;0.65;;;;;;;;;;10343084;28;20239;-75
2023/07/11 09:46:02;;;;;;;0.60;0.60;;;;;;;;;;10337675;28;20693;-76
2023/07/11 09:51:09;;;;;;;0.60;0.60;;;;;;;;;;10338023;28;20216;-75
2023/07/11 09:56:15;;;;;;;3.13;1.00;;;;;;;;;;10318883;28;20219;-75
2023/07/11 10:01:18;;;;;;;0.70;0.70;;;;;;;;;;10327933;28;20220;-76
2023/07/11 10:06:34;;;;;;;1.30;0.65;;;;;;;;;;10338022;28;20236;-76
2023/07/11 10:11:35;;;;;;;0.60;0.60;;;;;;;;;;10334192;28;20801;-77
2023/07/11 10:16:36;;;;;;;3.35;0.77;;;;;;;;;;10309814;28;20216;-77
2023/07/11 10:21:37;;;;;;;0.80;0.70;;;;;;;;;;10334962;28;20223;-75
2023/07/11 10:26:38;;;;;;;4.05;0.90;;;;;;;;;;10334743;28;20311;-77
2023/07/11 10:31:49;;;;;;;1.05;0.70;;;;;;;;;;10323792;28;20585;-75
2023/07/11 10:36:51;;;;;;;0.80;0.80;;;;;;;;;;10328466;28;21574;-76
2023/07/11 10:41:56;;;;;;;5.57;0.98;;;;;;;;;;10328803;28;20240;-77
2023/07/11 10:46:57;;;;;;;0.73;0.73;;;;;;;;;;10306753;28;20223;-76
2023/07/11 10:52:05;;;;;;;0.63;0.63;;;;;;;;;;10311102;28;20239;-74
2023/07/11 10:57:11;;;;;;;1.48;0.93;;;;;;;;;;10303865;28;20267;-75
2023/07/11 11:02:14;;;;;;;1.42;0.60;;;;;;;;;;10315946;28;20298;-75
2023/07/11 11:07:29;;;;;;;1.17;0.85;;;;;;;;;;10324741;28;20323;-75
2023/07/11 11:12:45;;;;;;;0.77;0.77;;;;;;;;;;10299706;28;20233;-75
2023/07/11 11:17:49;;;;;;;0.93;0.93;;;;;;;;;;10302688;28;20693;-76
2023/07/11 11:23:09;;;;;;;1.13;1.13;;;;;;;;;;10330464;28;20319;-75
2023/07/11 11:28:21;;;;;;;0.65;0.65;;;;;;;;;;10312159;28;20219;-75
2023/07/11 11:33:30;;;;;;;1.60;1.13;;;;;;;;;;10334220;28;20224;-76
2023/07/11 11:38:31;;;;;;;0.80;0.80;;;;;;;;;;10333415;28;20683;-75
2023/07/11 11:43:32;;;;;;;1.33;0.93;;;;;;;;;;10325316;28;20223;-76
2023/07/11 11:48:34;;;;;;;1.15;1.15;;;;;;;;;;10314223;28;20677;-75
2023/07/11 11:53:44;;;;;;;0.85;0.85;;;;;;;;;;10320740;28;20246;-75
2023/07/11 11:58:48;;;;;;;1.00;1.00;;;;;;;;;;10308518;28;20737;-76
2023/07/11 12:03:49;;;;;;;1.00;1.00;;;;;;;;;;10324118;28;20306;-76
2023/07/11 12:09:10;;;;;;;1.05;1.05;;;;;;;;;;10313496;28;20215;-76
2023/07/11 12:14:19;;;;;;;2.15;1.45;;;;;;;;;;10317257;28;20227;-76
2023/07/11 12:19:28;;;;;;;1.02;1.02;;;;;;;;;;10321448;28;20224;-77
2023/07/11 12:24:32;;;;;;;1.10;1.10;;;;;;;;;;10318464;28;20243;-76
2023/07/11 12:29:38;;;;;;;1.95;1.60;;;;;;;;;;10336013;28;20270;-76
2023/07/11 12:34:42;;;;;;;9.43;1.40;;;;;;;;;;10338004;28;20246;-76
2023/07/11 12:39:43;;;;;;;1.80;1.70;;;;;;;;;;10329914;28;20239;-76
2023/07/11 12:44:44;;;;;;;1.70;1.70;;;;;;;;;;10334508;28;20212;-76
2023/07/11 12:49:47;;;;;;;1.15;1.15;;;;;;;;;;10312558;28;20223;-76
2023/07/11 12:54:48;;;;;;;1.38;1.35;;;;;;;;;;10334937;28;20208;-76
2023/07/11 12:59:50;;;;;;;1.58;1.48;;;;;;;;;;10319499;28;20750;-77
2023/07/11 13:04:54;;;;;;;1.83;1.73;;;;;;;;;;10316094;28;20216;-76
2023/07/11 13:09:56;;;;;;;2.50;1.65;;;;;;;;;;10292385;28;20765;-78
2023/07/11 13:15:04;;;;;;;1.75;1.75;;;;;;;;;;10300258;28;20264;-75
2023/07/11 13:20:06;;;;;;;1.92;1.83;;;;;;;;;;10297688;28;20296;-77
2023/07/11 13:25:12;;;;;;;2.03;1.90;;;;;;;;;;10301285;28;20200;-77
2023/07/11 13:30:17;;;;;;;1.58;1.58;;;;;;;;;;10291382;28;20691;-75
2023/07/11 13:35:19;;;;;;;1.42;1.42;;;;;;;;;;10311863;28;20181;-77
2023/07/11 13:40:33;;;;;;;1.40;1.30;;;;;;;;;;10308179;28;20238;-76
2023/07/11 13:45:35;;;;;;;2.00;1.98;;;;;;;;;;10296694;28;20762;-75
2023/07/11 13:50:36;;;;;;;2.20;1.50;;;;;;;;;;10294666;28;20690;-75
2023/07/11 13:55:45;;;;;;;1.75;1.75;;;;;;;;;;10297608;28;20212;-76
2023/07/11 14:00:47;;;;;;;2.03;1.83;;;;;;;;;;10302218;28;20629;-77
2023/07/11 14:05:50;;;;;;;2.53;2.35;;;;;;;;;;10290597;28;20217;-79
2023/07/11 14:10:51;;;;;;;2.70;2.35;;;;;;;;;;10294595;28;20221;-76
2023/07/11 14:15:58;;;;;;;2.45;2.00;;;;;;;;;;10304495;28;20220;-76
2023/07/11 14:20:59;;;;;;;2.58;2.33;;;;;;;;;;10296076;28;20224;-74
2023/07/11 14:26:01;;;;;;;2.30;2.13;;;;;;;;;;10293258;28;20308;-76
2023/07/11 14:31:05;;;;;;;7.93;2.13;;;;;;;;;;10288712;28;20220;-77
2023/07/11 14:36:07;;;;;;;4.32;3.00;;;;;;;;;;10293631;28;20217;-78
2023/07/11 14:41:09;;;;;;;2.60;2.50;;;;;;;;;;10293176;28;20777;-77
2023/07/11 14:46:10;;;;;;;2.75;2.65;;;;;;;;;;10294716;28;20278;-78
2023/07/11 14:51:11;;;;;;;2.50;2.40;;;;;;;;;;10279420;28;20240;-74
2023/07/11 14:56:16;;;;;;;4.80;2.03;;;;;;;;;;10298132;28;20240;-74
2023/07/11 15:01:18;;;;;;;2.85;2.80;;;;;;;;;;10293094;28;20232;-76
2023/07/11 15:06:19;;;;;;;2.53;2.42;;;;;;;;;;10298368;28;20223;-76
2023/07/11 15:11:25;;;;;;;2.30;2.20;;;;;;;;;;10339598;28;20219;-77
2023/07/11 15:16:26;;;;;;;3.17;2.70;;;;;;;;;;10324150;28;20412;-77
2023/07/11 15:21:27;;;;;;;3.10;2.95;;;;;;;;;;10324388;28;20220;-74
2023/07/11 15:26:28;;;;;;;2.47;2.28;;;;;;;;;;10335834;28;21027;-77
2023/07/11 15:31:29;;;;;;;3.10;2.50;;;;;;;;;;10334033;28;20218;-74
2023/07/11 15:36:30;;;;;;;4.30;2.47;;;;;;;;;;10330976;28;20227;-79
2023/07/11 15:41:31;;;;;;;2.22;2.20;;;;;;;;;;10332357;28;20654;-75
2023/07/11 15:46:33;;;;;;;2.70;2.60;;;;;;;;;;10333191;28;20230;-75
2023/07/11 15:51:35;;;;;;;2.20;2.20;;;;;;;;;;10317669;28;22194;-76
2023/07/11 15:56:37;;;;;;;2.60;2.50;;;;;;;;;;10332983;28;20282;-74
2023/07/11 16:01:38;;;;;;;2.78;2.67;;;;;;;;;;10325080;28;20244;-76
2023/07/11 16:06:39;;;;;;;2.85;2.75;;;;;;;;;;10314323;28;20232;-76
2023/07/11 16:11:41;;;;;;;3.78;2.70;;;;;;;;;;10332691;28;20635;-74
2023/07/11 16:16:42;;;;;;;2.40;2.28;;;;;;;;;;10327925;28;20224;-74
2023/07/11 16:21:43;;;;;;;3.17;2.70;;;;;;;;;;10316608;28;20749;-74
2023/07/11 16:26:45;;;;;;;3.45;3.17;;;;;;;;;;10313990;28;20258;-74
2023/07/11 16:31:46;;;;;;;2.67;2.58;;;;;;;;;;10319853;28;20295;-74
2023/07/11 16:36:50;;;;;;;2.72;2.53;;;;;;;;;;10331818;28;20223;-75
2023/07/11 16:41:52;;;;;;;4.85;3.25;;;;;;;;;;10329908;28;20220;-75
2023/07/11 16:46:57;;;;;;;2.38;2.38;;;;;;;;;;10320936;28;20639;-74
2023/07/11 16:51:58;;;;;;;2.90;2.80;;;;;;;;;;10315003;28;20227;-74
2023/07/11 16:56:59;;;;;;;3.15;2.95;;;;;;;;;;10334015;28;20311;-74
2023/07/11 17:02:00;;;;;;;3.25;3.15;;;;;;;;;;10316864;28;20216;-75
2023/07/11 17:07:01;;;;;;;3.22;3.13;;;;;;;;;;10331277;28;20232;-75
2023/07/11 17:12:02;;;;;;;2.88;2.67;;;;;;;;;;10316574;28;20590;-75
2023/07/11 17:17:09;;;;;;;3.15;2.70;;;;;;;;;;10333404;28;20211;-75
2023/07/11 17:22:14;;;;;;;3.42;3.33;;;;;;;;;;10329187;28;20216;-76
2023/07/11 17:27:16;;;;;;;2.80;2.70;;;;;;;;;;10319207;28;20216;-75
2023/07/11 17:32:19;;;;;;;3.47;3.17;;;;;;;;;;10331910;28;20304;-75
2023/07/11 17:37:26;;;;;;;3.03;2.92;;;;;;;;;;10339524;28;20212;-75
2023/07/11 17:42:28;;;;;;;3.10;3.00;;;;;;;;;;10324147;28;20580;-77
2023/07/11 17:47:29;;;;;;;3.22;2.97;;;;;;;;;;10337843;28;20242;-75
2023/07/11 17:52:31;;;;;;;3.00;2.67;;;;;;;;;;10320620;28;20212;-74
2023/07/11 17:57:32;;;;;;;3.70;3.10;;;;;;;;;;10337498;28;20215;-75
2023/07/11 18:02:33;;;;;;;3.85;3.65;;;;;;;;;;10333021;28;20711;-73
2023/07/11 18:07:35;;;;;;;3.55;3.25;;;;;;;;;;10317108;28;20278;-74
2023/07/11 18:12:36;;;;;;;3.20;3.00;;;;;;;;;;10330997;28;20614;-76
2023/07/11 18:17:37;;;;;;;11.80;3.40;;;;;;;;;;10313076;28;20217;-74
2023/07/11 18:22:38;;;;;;;3.28;2.97;;;;;;;;;;10327028;28;20220;-75
2023/07/11 18:27:39;;;;;;;3.90;3.60;;;;;;;;;;10332515;28;20227;-74
2023/07/11 18:32:41;;;;;;;3.03;2.92;;;;;;;;;;10332172;28;20603;-76
2023/07/11 18:37:43;;;;;;;3.85;3.60;;;;;;;;;;10322289;28;20208;-75
2023/07/11 18:42:44;;;;;;;3.42;3.13;;;;;;;;;;10317895;28;20220;-76
2023/07/11 18:47:45;;;;;;;3.35;3.15;;;;;;;;;;10312285;28;20318;-76
2023/07/11 18:52:46;;;;;;;3.22;3.03;;;;;;;;;;10315146;28;20656;-77
2023/07/11 18:57:48;;;;;;;3.67;3.40;;;;;;;;;;10314812;28;20435;-75
2023/07/11 19:02:49;;;;;;;3.47;3.28;;;;;;;;;;10313853;28;20220;-77
2023/07/11 19:07:50;;;;;;;3.97;3.15;;;;;;;;;;10307201;28;20228;-74
2023/07/11 19:12:51;;;;;;;3.65;3.45;;;;;;;;;;10326516;28;20228;-77
2023/07/11 19:17:57;;;;;;;3.15;2.95;;;;;;;;;;10325928;28;20217;-75
2023/07/11 19:23:03;;;;;;;3.60;3.40;;;;;;;;;;10330607;28;20603;-76
2023/07/11 19:28:07;;;;;;;3.70;3.47;;;;;;;;;;10332822;28;20698;-76
2023/07/11 19:33:08;;;;;;;3.00;2.90;;;;;;;;;;10306667;28;20224;-76
2023/07/11 19:38:28;;;;;;;3.25;2.97;;;;;;;;;;10331050;28;20211;-77
2023/07/11 19:43:29;;;;;;;2.80;2.60;;;;;;;;;;10331531;28;20245;-75
2023/07/11 19:48:30;;;;;;;2.70;2.60;;;;;;;;;;10328566;28;20255;-76
2023/07/11 19:53:31;;;;;;;2.60;2.40;;;;;;;;;;10336294;28;20701;-77
2023/07/11 19:58:32;;;;;;;2.65;2.55;;;;;;;;;;10321666;28;20347;-76
2023/07/11 20:03:33;;;;;;;2.30;2.03;;;;;;;;;;10308158;28;20282;-75
2023/07/11 20:08:35;;;;;;;2.75;2.65;;;;;;;;;;10327533;28;20232;-75
2023/07/11 20:13:36;;;;;;;3.10;2.80;;;;;;;;;;10334960;28;20216;-76
2023/07/11 20:18:37;;;;;;;2.50;2.42;;;;;;;;;;10334066;28;20230;-76
2023/07/11 20:23:38;;;;;;;3.22;2.65;;;;;;;;;;10327749;28;20227;-76
2023/07/11 20:28:40;;;;;;;10.05;2.55;;;;;;;;;;10334270;28;20216;-76
2023/07/11 20:33:41;;;;;;;2.55;2.35;;;;;;;;;;10335775;28;20211;-77
2023/07/11 20:38:42;;;;;;;2.97;2.83;;;;;;;;;;10334041;28;20786;-76
2023/07/11 20:43:44;;;;;;;2.65;2.55;;;;;;;;;;10337338;28;20702;-76
2023/07/11 20:48:45;;;;;;;3.47;3.28;;;;;;;;;;10335077;28;20223;-76
2023/07/11 20:53:47;;;;;;;2.13;2.03;;;;;;;;;;10339763;28;20592;-76
2023/07/11 20:58:48;;;;;;;4.43;3.28;;;;;;;;;;10320829;28;20335;-75
2023/07/11 21:03:50;;;;;;;3.72;3.42;;;;;;;;;;10211939;28;20225;-76
2023/07/11 21:08:51;;;;;;;3.38;2.65;;;;;;;;;;10206343;28;20247;-75
2023/07/11 21:13:52;;;;;;;3.72;3.45;;;;;;;;;;10209615;28;21283;-78
2023/07/11 21:18:53;;;;;;;3.00;2.80;;;;;;;;;;10204342;28;20303;-77
2023/07/11 21:23:54;;;;;;;2.90;2.80;;;;;;;;;;10187510;28;20322;-80
2023/07/11 21:28:55;;;;;;;2.70;2.65;;;;;;;;;;10216124;28;22173;-77
2023/07/11 21:33:56;;;;;;;2.47;2.38;;;;;;;;;;10205689;28;20304;-78
2023/07/11 21:38:58;;;;;;;2.55;2.45;;;;;;;;;;10194721;28;21842;-80
2023/07/11 21:43:59;;;;;;;2.58;2.42;;;;;;;;;;10194000;28;20221;-77
2023/07/11 21:49:00;;;;;;;2.83;2.58;;;;;;;;;;10214351;28;20291;-78
2023/07/11 21:54:03;;;;;;;3.22;2.97;;;;;;;;;;10208046;28;20224;-81
2023/07/11 21:59:05;;;;;;;3.05;2.85;;;;;;;;;;10193197;28;20228;-81
2023/07/11 22:04:06;;;;;;;2.92;2.72;;;;;;;;;;10184422;28;20318;-75
2023/07/11 22:09:09;;;;;;;3.00;2.80;;;;;;;;;;10194838;28;20783;-81
2023/07/11 22:14:10;;;;;;;2.67;2.58;;;;;;;;;;10187937;28;20220;-74
2023/07/11 22:19:14;;;;;;;3.20;2.72;;;;;;;;;;10188398;28;20223;-78
2023/07/11 22:24:15;;;;;;;2.70;2.50;;;;;;;;;;10196981;28;20221;-76
2023/07/11 22:29:16;;;;;;;2.90;2.70;;;;;;;;;;10202339;28;20224;-76
2023/07/11 22:34:17;;;;;;;3.13;2.92;;;;;;;;;;10195100;28;20227;-79
2023/07/11 22:39:19;;;;;;;2.83;2.63;;;;;;;;;;10192324;28;20220;-78
2023/07/11 22:44:20;;;;;;;2.58;2.45;;;;;;;;;;10211061;28;20219;-80
2023/07/11 22:49:21;;;;;;;2.85;2.65;;;;;;;;;;10200712;28;20403;-80
2023/07/11 22:54:22;;;;;;;2.90;2.70;;;;;;;;;;10212944;28;20336;-81
2023/07/11 22:59:23;;;;;;;2.97;2.78;;;;;;;;;;10218440;28;23090;-79
2023/07/11 23:04:24;;;;;;;2.65;2.55;;;;;;;;;;10215515;28;20250;-75
2023/07/11 23:09:25;;;;;;;2.90;2.58;;;;;;;;;;10208857;28;20556;-79
2023/07/11 23:14:26;;;;;;;3.90;2.88;;;;;;;;;;10211973;28;20274;-75
2023/07/11 23:19:27;;;;;;;2.47;2.28;;;;;;;;;;10204316;28;20216;-78
2023/07/11 23:24:28;;;;;;;2.80;2.67;;;;;;;;;;10208792;28;20232;-78
2023/07/11 23:29:29;;;;;;;3.08;2.17;;;;;;;;;;10207228;28;20224;-80
2023/07/11 23:34:30;;;;;;;3.30;3.08;;;;;;;;;;10204060;28;22438;-80
2023/07/11 23:39:31;;;;;;;2.95;2.75;;;;;;;;;;10192038;28;20247;-80
2023/07/11 23:44:32;;;;;;;2.42;2.30;;;;;;;;;;10193733;28;20251;-80
2023/07/11 23:49:33;;;;;;;3.22;3.03;;;;;;;;;;10203271;28;20232;-77
2023/07/11 23:54:34;;;;;;;3.00;2.70;;;;;;;;;;10196683;28;21730;-78
2023/07/11 23:59:35;;;;;;;2.60;2.47;;;;;;;;;;10202138;28;20700;-79
